createdAt,value
2023-02-01T00:00:28.989Z,6.03
2023-02-01T00:05:58.486Z,6.43
2023-02-01T00:11:20.227Z,3.25
2023-02-01T00:16:42.113Z,3.45
2023-02-01T00:22:03.825Z,2.60
2023-02-01T00:27:25.568Z,4.25
2023-02-01T00:32:47.281Z,3.67
2023-02-01T00:38:09.014Z,3.08
2023-02-01T00:43:32.602Z,5.68
2023-02-01T00:48:54.856Z,1.67
2023-02-01T00:54:16.650Z,2.17
2023-02-01T00:59:38.395Z,4.40
2023-02-01T01:05:00.130Z,1.40
2023-02-01T01:10:22.436Z,3.55
2023-02-01T01:15:44.423Z,3.45
2023-02-01T01:21:07.759Z,2.08
2023-02-01T01:26:31.070Z,2.83
2023-02-01T01:31:52.886Z,3.17
2023-02-01T01:37:14.576Z,3.38
2023-02-01T01:42:40.575Z,1.77
2023-02-01T01:48:19.968Z,4.78
2023-02-01T01:54:02.745Z,1.48
2023-02-01T01:59:25.662Z,3.03
2023-02-01T02:04:48.576Z,2.83
2023-02-01T02:10:12.333Z,2.58
2023-02-01T02:15:35.232Z,1.73
2023-02-01T02:21:24.869Z,2.25
2023-02-01T02:26:57.512Z,4.25
2023-02-01T02:32:46.943Z,2.17
2023-02-01T02:38:43.244Z,2.10
2023-02-01T02:44:52.195Z,3.22
2023-02-01T02:50:46.387Z,3.08
2023-02-01T02:56:29.419Z,3.38
2023-02-01T03:02:09.662Z,2.33
2023-02-01T03:08:05.341Z,2.00
2023-02-01T03:13:52.024Z,1.95
2023-02-01T03:19:31.350Z,2.05
2023-02-01T03:24:56.479Z,1.70
2023-02-01T03:30:24.633Z,1.93
2023-02-01T03:36:13.645Z,2.90
2023-02-01T03:42:10.776Z,2.28
2023-02-01T03:47:38.914Z,2.10
2023-02-01T03:53:07.266Z,3.10
2023-02-01T03:58:29.091Z,1.92
2023-02-01T04:03:52.530Z,2.13
2023-02-01T04:09:14.273Z,2.67
2023-02-01T04:14:36.030Z,2.17
2023-02-01T04:19:57.827Z,4.10
2023-02-01T04:25:19.825Z,2.45
2023-02-01T04:30:41.948Z,1.95
2023-02-01T04:36:03.795Z,2.38
2023-02-01T04:41:25.806Z,2.45
2023-02-01T04:46:48.294Z,2.97
2023-02-01T04:52:10.457Z,4.13
2023-02-01T04:57:32.218Z,4.03
2023-02-01T05:02:53.919Z,1.80
2023-02-01T05:08:15.888Z,3.05
2023-02-01T05:13:49.816Z,4.18
2023-02-01T05:19:11.619Z,2.88
2023-02-01T05:24:33.372Z,2.22
2023-02-01T05:29:55.242Z,1.95
2023-02-01T05:35:17.070Z,3.55
2023-02-01T05:40:38.792Z,3.40
2023-02-01T05:46:00.675Z,2.78
2023-02-01T05:51:22.624Z,2.83
2023-02-01T05:56:44.321Z,2.28
2023-02-01T06:02:06.067Z,3.20
2023-02-01T06:07:29.637Z,2.70
2023-02-01T06:12:51.587Z,2.97
2023-02-01T06:18:13.478Z,4.78
2023-02-01T06:23:36.100Z,3.35
2023-02-01T06:28:57.875Z,6.10
2023-02-01T06:34:22.121Z,10.00
2023-02-01T06:39:44.011Z,7.47
2023-02-01T06:45:07.848Z,4.72
2023-02-01T06:50:29.777Z,6.47
2023-02-01T06:56:03.494Z,8.00
2023-02-01T07:01:25.211Z,9.00
2023-02-01T07:06:47.061Z,7.72
2023-02-01T07:12:08.814Z,5.72
2023-02-01T07:17:30.726Z,4.72
2023-02-01T07:22:58.705Z,5.03
2023-02-01T07:28:20.600Z,4.57
2023-02-01T07:33:42.996Z,2.20
2023-02-01T07:39:05.155Z,8.98
2023-02-01T07:44:26.917Z,4.18
2023-02-01T07:49:48.678Z,2.38
2023-02-01T07:55:10.473Z,4.72
2023-02-01T08:00:51.088Z,4.72
2023-02-01T08:06:12.956Z,4.57
2023-02-01T08:11:37.686Z,4.93
2023-02-01T08:16:59.679Z,2.83
2023-02-01T08:22:21.635Z,4.63
2023-02-01T08:27:43.394Z,6.78
2023-02-01T08:33:09.403Z,3.83
2023-02-01T08:38:31.179Z,3.75
2023-02-01T08:43:55.479Z,7.07
2023-02-01T08:49:17.164Z,5.63
2023-02-01T08:54:40.548Z,9.27
2023-02-01T09:00:02.604Z,12.50
2023-02-01T09:05:35.056Z,17.85
2023-02-01T09:11:04.741Z,10.35
2023-02-01T09:16:27.096Z,10.75
2023-02-01T09:21:48.774Z,15.55
2023-02-01T09:27:10.576Z,10.50
2023-02-01T09:32:32.290Z,14.52
2023-02-01T09:37:54.662Z,17.92
2023-02-01T09:43:26.731Z,12.10
2023-02-01T09:48:50.602Z,17.05
2023-02-01T09:54:22.916Z,6.22
2023-02-01T09:59:48.672Z,8.93
2023-02-01T10:05:16.534Z,13.05
2023-02-01T10:10:50.692Z,8.20
2023-02-01T10:16:15.524Z,12.60
2023-02-01T10:21:55.955Z,5.30
2023-02-01T10:27:36.595Z,8.38
2023-02-01T10:33:15.337Z,9.20
2023-02-01T10:38:37.103Z,5.18
2023-02-01T10:44:01.014Z,7.78
2023-02-01T10:49:53.817Z,7.57
2023-02-01T10:55:39.966Z,9.25
2023-02-01T11:01:09.132Z,11.15
2023-02-01T11:06:49.031Z,11.65
2023-02-01T11:12:40.104Z,8.18
2023-02-01T11:18:17.912Z,6.50
2023-02-01T11:23:45.932Z,5.15
2023-02-01T11:29:14.739Z,6.82
2023-02-01T11:34:56.878Z,6.65
2023-02-01T11:40:18.659Z,6.65
2023-02-01T11:45:40.905Z,4.45
2023-02-01T11:51:24.347Z,6.32
2023-02-01T11:57:21.187Z,5.63
2023-02-01T12:03:13.468Z,6.25
2023-02-01T12:08:54.675Z,3.08
2023-02-01T12:14:47.029Z,7.60
2023-02-01T12:20:46.642Z,3.60
2023-02-01T12:26:30.244Z,4.82
2023-02-01T12:32:08.808Z,4.68
2023-02-01T12:37:42.269Z,12.52
2023-02-01T12:43:26.980Z,7.53
2023-02-01T12:49:13.175Z,14.18
2023-02-01T12:54:49.514Z,10.15
2023-02-01T13:00:23.580Z,8.27
2023-02-01T13:05:56.114Z,17.10
2023-02-01T13:11:34.353Z,10.77
2023-02-01T13:17:28.990Z,12.15
2023-02-01T13:23:18.794Z,14.80
2023-02-01T13:29:05.950Z,7.95
2023-02-01T13:34:47.624Z,7.00
2023-02-01T13:40:46.664Z,7.18
2023-02-01T13:46:14.588Z,7.80
2023-02-01T13:51:49.270Z,9.93
2023-02-01T13:57:37.674Z,9.15
2023-02-01T14:03:02.264Z,7.88
2023-02-01T14:08:38.368Z,6.93
2023-02-01T14:19:34.603Z,5.20
2023-02-01T14:24:58.139Z,7.60
2023-02-01T14:30:20.686Z,4.07
2023-02-01T14:35:42.550Z,6.80
2023-02-01T14:41:34.394Z,5.88
2023-02-01T14:47:27.044Z,5.07
2023-02-01T14:53:16.553Z,5.22
2023-02-01T14:58:42.357Z,7.75
2023-02-01T15:04:19.534Z,5.97
2023-02-01T15:09:47.078Z,5.43
2023-02-01T15:15:18.542Z,5.70
2023-02-01T15:20:40.232Z,8.75
2023-02-01T15:26:33.186Z,5.22
2023-02-01T15:31:55.313Z,8.82
2023-02-01T15:37:19.610Z,6.20
2023-02-01T15:42:54.410Z,6.00
2023-02-01T15:48:23.740Z,6.88
2023-02-01T15:53:58.111Z,4.93
2023-02-01T15:59:23.916Z,6.22
2023-02-01T16:04:52.397Z,7.18
2023-02-01T16:10:28.495Z,4.43
2023-02-01T16:21:13.047Z,5.57
2023-02-01T16:26:35.481Z,9.00
2023-02-01T16:31:57.332Z,12.88
2023-02-01T16:37:24.117Z,10.48
2023-02-01T16:42:49.004Z,16.98
2023-02-01T16:48:20.427Z,12.30
2023-02-01T16:53:53.890Z,14.23
2023-02-01T16:59:16.595Z,20.58
2023-02-01T17:04:38.489Z,17.63
2023-02-01T17:10:00.425Z,12.52
2023-02-01T17:15:22.515Z,11.63
2023-02-01T17:20:44.810Z,8.13
2023-02-01T17:26:10.727Z,8.15
2023-02-01T17:31:37.336Z,9.45
2023-02-01T17:36:59.172Z,10.20
2023-02-01T17:42:21.254Z,8.27
2023-02-01T17:47:42.963Z,13.57
2023-02-01T17:53:10.072Z,6.30
2023-02-01T17:58:33.720Z,7.57
2023-02-01T18:03:55.527Z,7.15
2023-02-01T18:09:17.319Z,6.50
2023-02-01T18:14:38.987Z,10.15
2023-02-01T18:20:00.796Z,24.83
2023-02-01T18:25:25.785Z,15.00
2023-02-01T18:30:51.013Z,16.65
2023-02-01T18:36:13.464Z,8.20
2023-02-01T18:41:35.382Z,12.27
2023-02-01T18:46:57.430Z,7.05
2023-02-01T18:52:19.087Z,8.88
2023-02-01T18:57:41.204Z,9.23
2023-02-01T19:03:02.971Z,16.98
2023-02-01T19:08:25.961Z,5.97
2023-02-01T19:13:50.670Z,11.85
2023-02-01T19:19:12.339Z,3.90
2023-02-01T19:24:34.017Z,8.70
2023-02-01T19:29:55.888Z,5.45
2023-02-01T19:35:22.483Z,9.00
2023-02-01T19:40:44.944Z,4.65
2023-02-01T19:46:06.770Z,4.20
2023-02-01T19:51:28.494Z,6.55
2023-02-01T19:56:51.261Z,5.18
2023-02-01T20:02:15.712Z,6.70
2023-02-01T20:07:37.724Z,9.15
2023-02-01T20:12:59.591Z,6.28
2023-02-01T20:18:21.619Z,4.57
2023-02-01T20:23:46.430Z,10.98
2023-02-01T20:29:09.593Z,11.02
2023-02-01T20:34:31.323Z,13.90
2023-02-01T20:39:53.117Z,8.65
2023-02-01T20:45:18.017Z,6.90
2023-02-01T20:50:40.009Z,24.93
2023-02-01T20:56:01.798Z,11.48
2023-02-01T21:01:23.515Z,10.93
2023-02-01T21:06:45.708Z,12.52
2023-02-01T21:12:07.757Z,9.60
2023-02-01T21:17:33.337Z,9.85
2023-02-01T21:22:55.753Z,8.40
2023-02-01T21:28:17.488Z,11.48
2023-02-01T21:33:39.606Z,13.52
2023-02-01T21:39:05.984Z,13.55
2023-02-01T21:44:27.790Z,19.45
2023-02-01T21:49:49.628Z,16.02
2023-02-01T21:55:13.492Z,21.65
2023-02-01T22:00:35.221Z,14.02
2023-02-01T22:05:57.011Z,10.15
2023-02-01T22:11:19.104Z,11.98
2023-02-01T22:16:41.750Z,8.60
2023-02-01T22:22:03.535Z,8.45
2023-02-01T22:27:30.490Z,7.57
2023-02-01T22:33:06.992Z,10.07
2023-02-01T22:38:33.339Z,6.72
2023-02-01T22:43:55.147Z,7.43
2023-02-01T22:49:17.395Z,8.63
2023-02-01T22:54:40.284Z,5.68
2023-02-01T23:00:02.104Z,6.18
2023-02-01T23:05:24.043Z,6.72
2023-02-01T23:10:45.906Z,7.80
2023-02-01T23:16:10.315Z,9.75
2023-02-01T23:21:32.859Z,8.68
2023-02-01T23:26:54.753Z,8.35
2023-02-01T23:32:17.404Z,6.53
2023-02-01T23:37:40.921Z,7.50
2023-02-01T23:43:21.509Z,9.52
2023-02-01T23:48:44.730Z,7.15
2023-02-01T23:54:07.988Z,7.35
2023-02-01T23:59:32.196Z,9.02
